Time;durP1;ratioP1;P1;durP2;ratioP2;P2;SDS_P1;SDS_P2;PMS_P1;PMS_P2;Temp;Humidity;BMP_temperature;BMP_pressure;BME280_temperature;BME280_humidity;BME280_pressure;Samples;Min_cycle;Max_cycle;Signal;HPM_P1;HPM_P2
2021/11/04 00:02:14;;;;;;;6.53;4.53;;;;;;;6.38;100.00;97224.09;5012378;28;20790;-69
2021/11/04 00:04:39;;;;;;;7.90;4.88;;;;;;;6.41;100.00;97240.59;5009991;28;20076;-69
2021/11/04 00:07:11;;;;;;;8.27;5.68;;;;;;;6.52;100.00;97244.44;5012716;28;20026;-68
2021/11/04 00:09:36;;;;;;;7.45;4.63;;;;;;;6.52;100.00;97239.06;5014591;28;20164;-68
2021/11/04 00:12:02;;;;;;;7.75;5.40;;;;;;;6.50;100.00;97254.59;5006655;28;20424;-68
2021/11/04 00:14:27;;;;;;;10.02;6.00;;;;;;;6.46;100.00;97250.69;5008199;28;20124;-67
2021/11/04 00:16:52;;;;;;;9.65;5.70;;;;;;;6.45;100.00;97241.00;5005214;28;20029;-68
2021/11/04 00:19:18;;;;;;;8.23;5.60;;;;;;;6.34;100.00;97219.16;5012555;28;20026;-69
2021/11/04 00:21:43;;;;;;;9.15;5.28;;;;;;;6.39;100.00;97213.09;5014993;28;20164;-68
2021/11/04 00:24:08;;;;;;;11.32;6.45;;;;;;;6.40;100.00;97197.84;5004808;28;20065;-68
2021/11/04 00:26:34;;;;;;;12.50;6.07;;;;;;;6.49;100.00;97207.25;4999823;28;20105;-68
2021/11/04 00:28:59;;;;;;;10.45;6.05;;;;;;;6.49;100.00;97197.34;4994710;28;20050;-68
2021/11/04 00:31:25;;;;;;;9.40;5.50;;;;;;;6.50;100.00;97198.19;4996112;28;20033;-69
2021/11/04 00:33:55;;;;;;;7.15;4.88;;;;;;;6.52;100.00;97190.72;5002528;28;20089;-68
2021/11/04 00:36:21;;;;;;;6.90;4.60;;;;;;;6.52;100.00;97188.88;4997676;28;20036;-68
2021/11/04 00:38:47;;;;;;;8.95;5.10;;;;;;;6.39;100.00;97158.56;5005176;28;20112;-68
2021/11/04 00:41:17;;;;;;;6.03;4.47;;;;;;;6.47;100.00;97175.25;5003052;28;20038;-68
2021/11/04 00:43:43;;;;;;;9.40;5.13;;;;;;;6.56;100.00;97186.56;5012782;28;20032;-68
2021/11/04 00:46:08;;;;;;;9.73;5.32;;;;;;;6.54;100.00;97188.63;5012258;28;20038;-68
2021/11/04 00:48:34;;;;;;;8.65;5.43;;;;;;;6.50;100.00;97195.50;5007120;28;20030;-69
2021/11/04 00:50:59;;;;;;;7.28;4.97;;;;;;;6.44;100.00;97197.16;5008750;28;20061;-69
2021/11/04 00:53:24;;;;;;;8.65;4.47;;;;;;;6.46;100.00;97199.66;5002941;28;20105;-68
2021/11/04 00:55:51;;;;;;;6.85;4.75;;;;;;;6.49;100.00;97212.63;4994595;28;20105;-68
2021/11/04 00:58:17;;;;;;;7.18;4.85;;;;;;;6.45;100.00;97212.25;5000914;28;20109;-69
2021/11/04 01:00:43;;;;;;;6.57;4.97;;;;;;;6.54;100.00;97228.94;5005777;28;20032;-70
2021/11/04 01:03:08;;;;;;;7.43;5.10;;;;;;;6.42;100.00;97211.84;5005082;28;20090;-69
2021/11/04 01:05:34;;;;;;;7.55;4.60;;;;;;;6.54;100.00;97240.50;5006599;28;20026;-69
2021/11/04 01:07:59;;;;;;;7.70;4.78;;;;;;;6.60;100.00;97238.81;5016909;28;20125;-69
2021/11/04 01:10:26;;;;;;;8.18;4.38;;;;;;;6.59;100.00;97231.81;5012626;28;20049;-69
2021/11/04 01:12:51;;;;;;;6.22;4.20;;;;;;;6.42;100.00;97217.22;5001446;28;20030;-69
2021/11/04 01:15:17;;;;;;;7.55;4.28;;;;;;;6.58;100.00;97254.34;5007499;28;20026;-68
2021/11/04 01:17:43;;;;;;;5.43;3.67;;;;;;;6.64;100.00;97256.16;4994566;28;20030;-69
2021/11/04 01:20:09;;;;;;;6.20;3.95;;;;;;;6.64;100.00;97258.03;4995947;28;20500;-69
2021/11/04 01:22:35;;;;;;;6.07;3.97;;;;;;;6.67;100.00;97249.53;5000050;28;20018;-68
2021/11/04 01:25:01;;;;;;;6.72;4.22;;;;;;;6.53;100.00;97241.56;5008248;28;20061;-69
2021/11/04 01:27:27;;;;;;;6.38;4.13;;;;;;;6.64;100.00;97258.84;4994012;28;20666;-69
2021/11/04 01:29:52;;;;;;;7.60;4.60;;;;;;;6.64;100.00;97263.41;4993834;28;20024;-69
2021/11/04 01:32:17;;;;;;;6.35;4.40;;;;;;;6.68;100.00;97262.75;5005370;28;20036;-69
2021/11/04 01:34:43;;;;;;;7.90;4.63;;;;;;;6.59;100.00;97239.84;5011708;28;20045;-69
2021/11/04 01:37:08;;;;;;;8.15;4.35;;;;;;;6.59;100.00;97247.91;5013368;28;20603;-69
2021/11/04 01:39:33;;;;;;;7.13;4.45;;;;;;;6.48;100.00;97238.69;5005016;28;20030;-69
2021/11/04 01:41:59;;;;;;;9.73;4.63;;;;;;;6.56;100.00;97240.28;5000780;28;20506;-69
2021/11/04 01:44:27;;;;;;;8.90;5.15;;;;;;;6.59;100.00;97235.31;5010568;28;20033;-70
2021/11/04 01:46:53;;;;;;;8.02;4.95;;;;;;;6.56;100.00;97232.25;5002719;28;20022;-69
2021/11/04 01:49:19;;;;;;;7.25;4.72;;;;;;;6.55;100.00;97233.28;4997077;28;20081;-69
2021/11/04 01:51:45;;;;;;;8.55;4.85;;;;;;;6.53;100.00;97225.44;4998349;28;20029;-69
2021/11/04 01:54:11;;;;;;;9.82;5.43;;;;;;;6.64;100.00;97223.91;5002527;28;20025;-69
2021/11/04 01:56:38;;;;;;;9.65;5.30;;;;;;;6.58;100.00;97190.69;5010137;28;20041;-69
2021/11/04 01:59:04;;;;;;;9.75;6.05;;;;;;;6.67;100.00;97196.59;4998349;28;20019;-69
2021/11/04 02:01:29;;;;;;;9.48;5.97;;;;;;;6.68;100.00;97206.31;4995861;28;20057;-69
2021/11/04 02:04:03;;;;;;;7.55;5.60;;;;;;;6.62;100.00;97212.56;4995572;28;20030;-69
2021/11/04 02:07:27;;;;;;;9.82;6.50;;;;;;;6.58;100.00;97205.97;4999279;28;20117;-69
2021/11/04 02:09:58;;;;;;;9.63;5.88;;;;;;;6.55;100.00;97219.84;4986053;28;20038;-69
2021/11/04 02:13:01;;;;;;;7.57;4.35;;;;;;;6.30;100.00;97228.66;5000023;28;20046;-68
2021/11/04 02:15:29;;;;;;;3.83;2.92;;;;;;;5.97;100.00;97219.94;5009580;28;20030;-69
2021/11/04 02:17:57;;;;;;;3.63;2.60;;;;;;;5.96;100.00;97235.22;4993218;28;20404;-68
2021/11/04 02:20:29;;;;;;;2.92;2.30;;;;;;;5.89;100.00;97229.88;4997062;28;20022;-68
2021/11/04 02:23:03;;;;;;;1.85;1.42;;;;;;;5.91;100.00;97245.75;5011424;28;20053;-69
2021/11/04 02:25:32;;;;;;;1.77;1.13;;;;;;;5.82;100.00;97247.03;5018957;28;20112;-69
2021/11/04 02:28:02;;;;;;;1.08;0.93;;;;;;;5.61;100.00;97232.84;4997496;28;20041;-68
2021/11/04 02:30:29;;;;;;;2.20;0.95;;;;;;;5.80;100.00;97260.63;4993486;28;20029;-69
2021/11/04 02:32:56;;;;;;;0.90;0.70;;;;;;;5.71;100.00;97261.88;5002697;28;20033;-69
2021/11/04 02:35:22;;;;;;;1.40;1.08;;;;;;;5.63;100.00;97270.16;5011722;28;20068;-68
2021/11/04 02:37:51;;;;;;;1.20;0.80;;;;;;;5.46;100.00;97289.38;5010369;28;20062;-68
2021/11/04 02:40:19;;;;;;;1.13;0.85;;;;;;;5.46;100.00;97286.72;5011112;28;20361;-69
2021/11/04 02:42:45;;;;;;;3.47;1.25;;;;;;;5.34;100.00;97282.19;4997087;28;20042;-68
2021/11/04 02:45:13;;;;;;;1.17;0.98;;;;;;;5.28;100.00;97265.88;5007339;28;20446;-68
2021/11/04 02:47:39;;;;;;;1.10;0.98;;;;;;;5.37;100.00;97298.69;5009285;28;20022;-68
2021/11/04 02:50:07;;;;;;;2.10;0.98;;;;;;;5.33;100.00;97300.13;5003254;28;20105;-68
2021/11/04 02:52:32;;;;;;;1.00;0.80;;;;;;;5.31;100.00;97304.03;5009357;28;20022;-68
2021/11/04 02:55:03;;;;;;;4.80;1.08;;;;;;;5.35;100.00;97302.63;5013364;28;20381;-69
2021/11/04 02:57:29;;;;;;;1.35;0.98;;;;;;;5.22;100.00;97277.44;4997144;28;20026;-68
2021/11/04 02:59:55;;;;;;;1.77;1.08;;;;;;;5.42;100.00;97298.91;4997192;28;20045;-68
2021/11/04 03:02:20;;;;;;;2.67;1.00;;;;;;;5.28;100.00;97286.50;5008840;28;20084;-68
2021/11/04 03:04:45;;;;;;;1.45;0.90;;;;;;;5.33;100.00;97294.75;5026940;22;20047;-73
2021/11/04 03:07:11;;;;;;;1.65;1.00;;;;;;;5.33;100.00;97299.31;4988190;28;20388;-72
2021/11/04 03:09:37;;;;;;;4.13;1.00;;;;;;;5.15;100.00;97283.84;4994462;28;20101;-72
2021/11/04 03:12:03;;;;;;;2.38;1.23;;;;;;;5.28;100.00;97307.97;4982705;28;20110;-73
2021/11/04 03:14:29;;;;;;;2.78;1.20;;;;;;;5.31;100.00;97315.59;4975310;28;20074;-73
2021/11/04 03:16:55;;;;;;;2.13;1.15;;;;;;;5.33;100.00;97320.75;4989477;28;20022;-72
2021/11/04 03:19:23;;;;;;;1.40;1.10;;;;;;;5.17;100.00;97290.66;4974241;28;20089;-72
2021/11/04 03:21:51;;;;;;;2.92;1.52;;;;;;;5.18;100.00;97297.66;4990531;28;20042;-72
2021/11/04 03:24:18;;;;;;;2.10;1.33;;;;;;;5.25;100.00;97311.06;4971795;28;20027;-71
2021/11/04 03:27:05;;;;;;;4.00;1.58;;;;;;;5.27;100.00;97307.16;4991079;28;20035;-73
2021/11/04 03:29:34;;;;;;;2.17;1.48;;;;;;;5.23;100.00;97313.13;4987309;28;20070;-73
2021/11/04 03:32:02;;;;;;;2.33;1.48;;;;;;;5.19;100.00;97314.59;4983704;28;20072;-72
2021/11/04 03:34:28;;;;;;;4.20;2.10;;;;;;;5.18;100.00;97307.56;4993334;28;20092;-73
2021/11/04 03:36:55;;;;;;;6.35;2.45;;;;;;;5.08;100.00;97301.75;4982808;28;20034;-73
2021/11/04 03:39:22;;;;;;;3.38;2.33;;;;;;;5.20;100.00;97319.72;4982128;28;20037;-73
2021/11/04 03:41:51;;;;;;;3.10;1.95;;;;;;;5.11;100.00;97317.44;4989538;28;20023;-73
2021/11/04 03:44:19;;;;;;;5.88;2.17;;;;;;;5.12;100.00;97309.19;4983711;28;20026;-73
2021/11/04 03:46:45;;;;;;;3.55;2.40;;;;;;;5.09;100.00;97295.41;4980128;28;20042;-72
2021/11/04 03:49:13;;;;;;;3.95;2.30;;;;;;;5.14;100.00;97300.97;4998833;28;20077;-72
2021/11/04 03:51:39;;;;;;;4.80;2.85;;;;;;;4.89;100.00;97264.03;4984891;28;20558;-72
2021/11/04 03:54:04;;;;;;;3.42;2.05;;;;;;;4.97;100.00;97285.25;4977283;28;20039;-73
2021/11/04 03:56:29;;;;;;;6.82;2.47;;;;;;;4.92;100.00;97278.88;4994005;28;20058;-73
2021/11/04 03:58:55;;;;;;;3.30;2.08;;;;;;;4.98;100.00;97278.88;4987199;28;20031;-71
2021/11/04 04:01:21;;;;;;;6.50;2.53;;;;;;;5.03;100.00;97283.63;4977472;28;20046;-73
2021/11/04 04:03:47;;;;;;;3.78;2.47;;;;;;;5.03;100.00;97289.81;4974865;28;20046;-73
2021/11/04 04:06:12;;;;;;;5.70;2.40;;;;;;;5.13;100.00;97284.03;4990756;28;20034;-73
2021/11/04 04:08:45;;;;;;;6.25;2.72;;;;;;;5.02;100.00;97280.13;4994969;28;20033;-73
2021/11/04 04:11:11;;;;;;;4.82;2.45;;;;;;;5.02;100.00;97271.25;4990252;28;20036;-71
2021/11/04 04:13:36;;;;;;;3.95;2.47;;;;;;;5.03;100.00;97276.41;4991177;28;20112;-71
2021/11/04 04:16:02;;;;;;;3.60;2.42;;;;;;;4.99;100.00;97277.03;4993179;28;20034;-71
2021/11/04 04:18:27;;;;;;;3.53;2.28;;;;;;;4.96;100.00;97269.41;4976595;28;20032;-73
2021/11/04 04:20:53;;;;;;;4.07;2.50;;;;;;;4.96;100.00;97275.59;4977500;28;20031;-74
2021/11/04 04:23:19;;;;;;;3.92;2.17;;;;;;;4.99;100.00;97285.06;4989529;28;20027;-74
2021/11/04 04:25:45;;;;;;;4.50;2.00;;;;;;;4.99;100.00;97280.53;4984207;28;20504;-72
2021/11/04 04:28:10;;;;;;;4.03;2.30;;;;;;;5.00;100.00;97282.19;4993122;28;20026;-72
2021/11/04 04:30:36;;;;;;;4.75;2.60;;;;;;;5.07;100.00;97290.22;4987184;28;20021;-73
2021/11/04 04:33:01;;;;;;;3.92;2.50;;;;;;;5.05;100.00;97297.63;4988582;28;20030;-74
2021/11/04 04:35:27;;;;;;;5.63;2.83;;;;;;;5.08;100.00;97304.44;4989250;28;20543;-72
2021/11/04 04:37:52;;;;;;;4.10;2.60;;;;;;;5.15;100.00;97319.50;4994325;28;20019;-73
2021/11/04 04:40:17;;;;;;;7.43;2.47;;;;;;;5.13;100.00;97313.53;4989723;28;20022;-73
2021/11/04 04:42:43;;;;;;;5.88;2.67;;;;;;;5.09;100.00;97314.16;5000429;28;20033;-74
2021/11/04 04:45:08;;;;;;;4.53;2.83;;;;;;;4.79;100.00;97277.00;4993058;28;20050;-75
2021/11/04 04:47:34;;;;;;;3.50;2.30;;;;;;;4.98;100.00;97303.00;4991741;28;20632;-75
2021/11/04 04:50:00;;;;;;;3.75;2.42;;;;;;;5.06;100.00;97310.03;4994010;28;20057;-71
2021/11/04 04:52:29;;;;;;;6.28;2.65;;;;;;;5.10;100.00;97311.25;4994402;28;20114;-69
2021/11/04 04:54:55;;;;;;;5.65;2.67;;;;;;;5.03;100.00;97322.00;4994088;28;20065;-69
2021/11/04 04:57:23;;;;;;;3.40;2.40;;;;;;;4.96;100.00;97310.44;4991174;28;20077;-71
2021/11/04 04:59:55;;;;;;;4.13;2.92;;;;;;;4.98;100.00;97326.31;4990105;28;20034;-66
2021/11/04 05:02:22;;;;;;;4.25;2.58;;;;;;;5.02;100.00;97328.34;4994005;28;20026;-70
2021/11/04 05:04:48;;;;;;;3.65;2.60;;;;;;;5.08;100.00;97334.75;4992991;28;20506;-71
2021/11/04 05:07:14;;;;;;;4.20;2.33;;;;;;;5.07;100.00;97343.00;4998748;28;20023;-70
2021/11/04 05:09:39;;;;;;;4.15;2.72;;;;;;;4.98;100.00;97329.00;4970906;28;20495;-71
2021/11/04 05:12:05;;;;;;;3.88;2.58;;;;;;;5.05;100.00;97346.72;4988909;28;20045;-72
2021/11/04 05:14:30;;;;;;;4.93;2.50;;;;;;;5.08;100.00;97339.28;4991018;28;20368;-70
2021/11/04 05:16:55;;;;;;;4.63;2.83;;;;;;;5.04;100.00;97347.75;4988244;28;20121;-65
2021/11/04 05:19:21;;;;;;;3.65;2.40;;;;;;;4.94;100.00;97331.25;4990183;28;20022;-72
2021/11/04 05:21:46;;;;;;;4.00;2.70;;;;;;;4.99;100.00;97331.44;4976588;28;20045;-77
2021/11/04 05:24:12;;;;;;;5.20;2.55;;;;;;;5.02;100.00;97352.47;4986468;28;20026;-70
2021/11/04 05:26:38;;;;;;;4.43;2.85;;;;;;;5.00;100.00;97362.59;4992941;28;20033;-76
2021/11/04 05:29:04;;;;;;;4.30;2.97;;;;;;;4.82;100.00;97332.84;4994730;28;20395;-73
2021/11/04 05:31:29;;;;;;;4.40;2.55;;;;;;;4.87;100.00;97346.47;4993569;28;20018;-72
2021/11/04 05:33:55;;;;;;;10.35;3.22;;;;;;;4.89;100.00;97348.97;4993085;28;20084;-71
2021/11/04 05:36:21;;;;;;;6.38;3.38;;;;;;;5.00;100.00;97372.47;4992008;28;20121;-71
2021/11/04 05:38:48;;;;;;;4.40;3.13;;;;;;;4.82;100.00;97346.25;4992875;28;20030;-72
2021/11/04 05:41:14;;;;;;;4.88;3.28;;;;;;;5.01;100.00;97371.47;4992788;28;20030;-68
2021/11/04 05:43:39;;;;;;;4.32;2.97;;;;;;;4.92;100.00;97368.13;4988509;28;20022;-71
2021/11/04 05:46:04;;;;;;;5.05;3.40;;;;;;;5.00;100.00;97381.38;4991650;28;20113;-70
2021/11/04 05:48:30;;;;;;;5.60;3.63;;;;;;;4.99;100.00;97384.25;4986908;28;20083;-74
2021/11/04 05:50:56;;;;;;;6.47;3.35;;;;;;;4.99;100.00;97393.09;4982142;28;20018;-68
2021/11/04 05:53:23;;;;;;;4.45;2.97;;;;;;;4.98;100.00;97391.47;5006944;28;20082;-72
2021/11/04 05:55:49;;;;;;;4.45;3.10;;;;;;;5.00;100.00;97400.13;4981695;28;20030;-69
2021/11/04 05:58:14;;;;;;;4.38;2.97;;;;;;;4.92;100.00;97400.28;4974575;28;20105;-73
2021/11/04 06:00:40;;;;;;;5.07;2.92;;;;;;;4.89;100.00;97381.94;4990548;28;20493;-74
2021/11/04 06:03:05;;;;;;;4.72;3.00;;;;;;;4.79;100.00;97379.66;4992789;28;20101;-74
2021/11/04 06:05:30;;;;;;;4.38;2.92;;;;;;;4.86;100.00;97401.09;4978223;28;20030;-69
2021/11/04 06:07:56;;;;;;;4.57;2.85;;;;;;;4.83;100.00;97412.22;5014613;28;20064;-73
2021/11/04 06:10:21;;;;;;;4.30;3.13;;;;;;;4.81;100.00;97404.38;5014520;28;20034;-69
2021/11/04 06:12:47;;;;;;;5.57;3.20;;;;;;;4.95;100.00;97426.72;5014419;28;20030;-69
2021/11/04 06:15:12;;;;;;;4.13;2.60;;;;;;;4.92;100.00;97421.72;5014312;28;20019;-70
2021/11/04 06:17:38;;;;;;;4.07;3.03;;;;;;;4.95;100.00;97415.13;5014051;28;20022;-69
2021/11/04 06:20:05;;;;;;;5.00;2.72;;;;;;;4.97;100.00;97430.00;5013607;28;20060;-69
2021/11/04 06:22:30;;;;;;;4.22;2.90;;;;;;;4.90;100.00;97428.31;5013872;28;20058;-70
2021/11/04 06:24:56;;;;;;;5.88;2.85;;;;;;;4.99;100.00;97429.81;5010175;28;20010;-69
2021/11/04 06:27:21;;;;;;;3.85;2.65;;;;;;;4.98;100.00;97433.53;5013732;28;20082;-69
2021/11/04 06:29:46;;;;;;;4.30;2.80;;;;;;;4.97;100.00;97435.34;5011555;28;20034;-69
2021/11/04 06:32:12;;;;;;;4.55;3.08;;;;;;;4.99;100.00;97425.25;5014337;28;20033;-69
2021/11/04 06:34:37;;;;;;;4.30;2.83;;;;;;;5.02;100.00;97437.44;5014084;28;20010;-70
2021/11/04 06:37:03;;;;;;;4.07;3.13;;;;;;;5.02;100.00;97440.94;5010219;28;20022;-70
2021/11/04 06:39:28;;;;;;;5.78;3.38;;;;;;;5.05;100.00;97443.22;5000788;28;20023;-71
2021/11/04 06:41:54;;;;;;;4.95;3.00;;;;;;;4.92;100.00;97440.47;5006284;28;20037;-73
2021/11/04 06:44:19;;;;;;;5.18;2.90;;;;;;;4.98;100.00;97446.91;5013254;28;20026;-75
2021/11/04 06:46:48;;;;;;;5.00;2.90;;;;;;;4.93;100.00;97450.19;5012890;28;20033;-73
2021/11/04 06:49:17;;;;;;;5.57;3.50;;;;;;;5.05;100.00;97450.44;5013008;28;20033;-70
2021/11/04 06:51:45;;;;;;;;;;;;;;;5.07;100.00;97460.97;5012011;28;20014;-70
2021/11/04 06:54:12;;;;;;;5.85;2.60;;;;;;;5.11;100.00;97462.19;5008546;28;19921;-71
2021/11/04 06:56:41;;;;;;;5.35;3.03;;;;;;;5.15;100.00;97463.47;5006160;28;20026;-70
2021/11/04 06:59:16;;;;;;;3.47;2.55;;;;;;;5.12;100.00;97461.19;4993406;28;20026;-74
2021/11/04 07:01:59;;;;;;;4.10;2.72;;;;;;;5.09;100.00;97472.31;4993598;28;20079;-68
2021/11/04 07:04:38;;;;;;;4.40;3.20;;;;;;;5.16;100.00;97470.47;4985870;28;20026;-68
2021/11/04 07:07:10;;;;;;;5.20;3.10;;;;;;;5.09;100.00;97454.38;4992390;28;20037;-68
2021/11/04 07:09:39;;;;;;;6.35;3.20;;;;;;;5.22;100.00;97475.84;4992791;28;20034;-68
2021/11/04 07:12:09;;;;;;;5.93;4.05;;;;;;;5.30;100.00;97477.53;4991956;28;20423;-68
2021/11/04 07:14:36;;;;;;;5.65;3.25;;;;;;;5.31;100.00;97484.53;4990755;28;20038;-68
2021/11/04 07:17:03;;;;;;;4.30;3.10;;;;;;;5.38;100.00;97498.78;4985412;28;20030;-68
2021/11/04 07:19:30;;;;;;;5.32;3.50;;;;;;;5.36;100.00;97503.53;4989362;28;20377;-68
2021/11/04 07:22:14;;;;;;;4.90;3.05;;;;;;;5.42;100.00;97510.78;4971013;28;20384;-73
2021/11/04 07:25:10;;;;;;;4.82;2.88;;;;;;;5.37;100.00;97515.06;4985456;28;20085;-73
2021/11/04 07:27:53;;;;;;;4.28;3.17;;;;;;;5.28;100.00;97509.91;4989774;28;20092;-74
2021/11/04 07:30:20;;;;;;;5.38;3.60;;;;;;;5.35;100.00;97517.16;4999221;28;20026;-71
2021/11/04 07:32:53;;;;;;;4.47;3.33;;;;;;;5.34;100.00;97520.84;4996020;28;20492;-67
2021/11/04 07:35:23;;;;;;;4.65;3.47;;;;;;;5.36;100.00;97521.47;4997265;28;20035;-69
2021/11/04 07:37:48;;;;;;;5.72;3.05;;;;;;;5.38;100.00;97520.25;4996838;28;20446;-66
2021/11/04 07:40:16;;;;;;;4.75;3.65;;;;;;;5.37;100.00;97534.69;4979048;28;20030;-69
2021/11/04 07:42:42;;;;;;;4.55;2.97;;;;;;;5.36;100.00;97530.34;4994654;28;20110;-69
2021/11/04 07:45:08;;;;;;;5.68;3.58;;;;;;;5.31;100.00;97511.34;4976505;28;20480;-71
2021/11/04 07:47:39;;;;;;;6.20;3.70;;;;;;;5.36;100.00;97535.72;4987410;28;20133;-72
2021/11/04 07:50:05;;;;;;;4.85;3.50;;;;;;;5.34;100.00;97532.41;4977644;28;20455;-71
2021/11/04 07:52:31;;;;;;;4.93;3.35;;;;;;;5.35;100.00;97530.56;4994741;28;20030;-72
2021/11/04 07:55:00;;;;;;;5.03;3.40;;;;;;;5.37;100.00;97537.38;4990840;28;20026;-73
2021/11/04 07:57:26;;;;;;;3.50;2.75;;;;;;;5.30;100.00;97533.03;4990376;28;20440;-72
2021/11/04 07:59:51;;;;;;;5.07;3.28;;;;;;;5.24;100.00;97542.69;4989532;28;20421;-73
2021/11/04 08:02:17;;;;;;;6.05;4.03;;;;;;;5.31;100.00;97543.53;4994768;28;20029;-73
2021/11/04 08:04:42;;;;;;;6.13;3.60;;;;;;;5.19;100.00;97539.78;4989100;28;20109;-71
2021/11/04 08:07:07;;;;;;;4.72;3.20;;;;;;;5.17;100.00;97533.78;4996179;28;20441;-74
2021/11/04 08:09:33;;;;;;;4.68;2.90;;;;;;;5.21;100.00;97535.88;4997102;28;20026;-75
2021/11/04 08:11:59;;;;;;;4.07;3.10;;;;;;;5.30;100.00;97547.25;4979567;28;20384;-73
2021/11/04 08:14:24;;;;;;;7.25;3.40;;;;;;;5.32;100.00;97555.06;4978573;28;20030;-75
2021/11/04 08:16:50;;;;;;;6.45;3.35;;;;;;;5.17;100.00;97547.19;4970867;28;20432;-75
2021/11/04 08:19:16;;;;;;;5.13;3.28;;;;;;;5.13;100.00;97541.41;4995832;28;20030;-74
2021/11/04 08:21:41;;;;;;;5.35;3.20;;;;;;;5.32;100.00;97560.44;4996012;28;20026;-74
2021/11/04 08:24:06;;;;;;;5.03;3.38;;;;;;;5.28;100.00;97551.97;4984164;28;20026;-74
2021/11/04 08:26:33;;;;;;;4.85;3.17;;;;;;;5.34;100.00;97561.06;4996382;28;20400;-74
2021/11/04 08:29:01;;;;;;;5.25;3.50;;;;;;;5.38;100.00;97563.16;5003126;28;20034;-75
2021/11/04 08:31:27;;;;;;;5.35;3.30;;;;;;;5.30;100.00;97568.72;4974693;28;20019;-75
2021/11/04 08:33:52;;;;;;;4.93;3.28;;;;;;;5.07;100.00;97562.81;4996419;28;20037;-71
2021/11/04 08:36:18;;;;;;;5.97;3.28;;;;;;;5.24;100.00;97575.69;4996146;28;20215;-74
2021/11/04 08:38:43;;;;;;;4.95;3.38;;;;;;;5.35;100.00;97581.53;4994351;28;20034;-74
2021/11/04 08:41:08;;;;;;;4.32;3.03;;;;;;;5.21;100.00;97568.06;5000215;28;20025;-74
2021/11/04 08:43:33;;;;;;;5.00;3.20;;;;;;;5.13;100.00;97568.19;5008234;28;20021;-75
2021/11/04 08:45:59;;;;;;;5.70;3.33;;;;;;;5.09;100.00;97568.81;5015018;28;20045;-75
2021/11/04 08:48:24;;;;;;;4.90;3.45;;;;;;;5.27;100.00;97591.38;5013004;28;20038;-68
2021/11/04 08:50:50;;;;;;;4.43;3.17;;;;;;;5.37;100.00;97585.66;5015074;28;20026;-73
2021/11/04 08:53:16;;;;;;;4.40;3.13;;;;;;;5.35;100.00;97593.06;5011756;28;20113;-75
2021/11/04 08:55:42;;;;;;;6.50;3.80;;;;;;;5.37;100.00;97588.34;4978674;28;20086;-75
2021/11/04 08:58:07;;;;;;;3.85;3.00;;;;;;;5.49;100.00;97591.25;4998965;28;20045;-75
2021/11/04 09:00:33;;;;;;;4.93;3.15;;;;;;;5.57;100.00;97590.25;5014089;28;20026;-73
2021/11/04 09:02:59;;;;;;;4.88;3.28;;;;;;;5.51;100.00;97597.25;5014723;28;20030;-75
2021/11/04 09:05:24;;;;;;;5.80;3.38;;;;;;;5.48;100.00;97590.44;5028653;23;20053;-74
2021/11/04 09:07:49;;;;;;;4.47;3.20;;;;;;;5.69;100.00;97594.03;5013924;28;20061;-70
2021/11/04 09:10:18;;;;;;;5.13;2.90;;;;;;;5.85;100.00;97592.81;5018754;28;20518;-70
2021/11/04 09:12:43;;;;;;;4.90;2.85;;;;;;;5.87;100.00;97604.19;5010056;28;20088;-72
2021/11/04 09:15:11;;;;;;;4.57;2.60;;;;;;;5.98;100.00;97609.00;5006391;28;20630;-71
2021/11/04 09:17:36;;;;;;;3.67;2.55;;;;;;;5.81;100.00;97597.75;5017860;28;20024;-70
2021/11/04 09:20:02;;;;;;;4.78;3.20;;;;;;;5.85;100.00;97592.81;5021887;28;20026;-71
2021/11/04 09:22:27;;;;;;;5.05;2.55;;;;;;;6.01;100.00;97624.69;5021226;28;20029;-72
2021/11/04 09:24:54;;;;;;;3.92;2.70;;;;;;;5.97;100.00;97615.38;5010938;28;20116;-71
2021/11/04 09:27:20;;;;;;;4.03;2.78;;;;;;;5.89;100.00;97604.78;5014345;28;20018;-70
2021/11/04 09:29:46;;;;;;;4.75;2.97;;;;;;;5.84;100.00;97629.59;5004518;28;20054;-68
2021/11/04 09:32:12;;;;;;;4.35;2.65;;;;;;;5.89;100.00;97637.84;5006783;28;20048;-68
2021/11/04 09:34:39;;;;;;;5.30;3.05;;;;;;;5.90;100.00;97642.19;5027464;28;20104;-72
2021/11/04 09:37:08;;;;;;;3.80;2.85;;;;;;;5.82;100.00;97623.56;5010990;28;20095;-72
2021/11/04 09:39:34;;;;;;;3.80;2.60;;;;;;;5.80;100.00;97625.63;5046903;28;20052;-73
2021/11/04 09:42:00;;;;;;;3.58;2.30;;;;;;;5.93;100.00;97639.13;5003677;28;20464;-74
2021/11/04 09:44:27;;;;;;;3.85;2.88;;;;;;;5.98;100.00;97651.94;4998775;28;20037;-70
2021/11/04 09:46:52;;;;;;;4.80;2.35;;;;;;;5.75;100.00;97595.88;5025264;28;20070;-72
2021/11/04 09:49:18;;;;;;;3.85;2.47;;;;;;;6.20;100.00;97657.97;5017145;28;20025;-70
2021/11/04 09:51:44;;;;;;;5.13;2.72;;;;;;;5.88;100.00;97644.22;5012834;28;20036;-67
2021/11/04 09:54:09;;;;;;;3.05;2.38;;;;;;;5.97;100.00;97660.19;5008945;28;20023;-71
2021/11/04 09:56:35;;;;;;;7.00;2.88;;;;;;;6.09;100.00;97664.78;5020001;28;22531;-68
2021/11/04 09:59:01;;;;;;;4.43;2.35;;;;;;;6.17;100.00;97673.69;5019591;28;20113;-71
2021/11/04 10:01:29;;;;;;;3.58;2.17;;;;;;;6.12;100.00;97683.16;5033574;28;20529;-70
2021/11/04 10:03:57;;;;;;;3.30;2.20;;;;;;;6.16;100.00;97680.91;5014894;28;20022;-72
2021/11/04 10:06:25;;;;;;;3.17;2.20;;;;;;;6.25;100.00;97681.53;5022235;28;20032;-70
2021/11/04 10:08:59;;;;;;;4.00;2.40;;;;;;;6.19;100.00;97677.81;5013275;28;20040;-71
2021/11/04 10:11:36;;;;;;;2.83;2.00;;;;;;;6.15;100.00;97690.81;5021158;28;20104;-72
2021/11/04 10:14:10;;;;;;;2.90;2.13;;;;;;;6.04;100.00;97685.22;5013842;28;20026;-71
2021/11/04 10:16:37;;;;;;;5.35;2.50;;;;;;;6.25;100.00;97695.78;5014024;28;20109;-71
2021/11/04 10:19:05;;;;;;;4.32;2.30;;;;;;;5.98;100.00;97672.59;5012128;28;20027;-71
2021/11/04 10:21:33;;;;;;;4.65;2.67;;;;;;;6.15;100.00;97706.91;5007936;28;20022;-73
2021/11/04 10:23:58;;;;;;;8.18;3.17;;;;;;;6.09;100.00;97709.59;5012948;28;20030;-72
2021/11/04 10:26:28;;;;;;;4.53;2.90;;;;;;;6.00;100.00;97687.47;5011287;28;20076;-73
2021/11/04 10:29:01;;;;;;;5.72;3.05;;;;;;;6.24;100.00;97710.25;5012286;28;20116;-72
2021/11/04 10:31:37;;;;;;;4.15;2.90;;;;;;;6.19;100.00;97714.59;5007706;28;20425;-71
2021/11/04 10:34:03;;;;;;;4.43;2.70;;;;;;;6.03;100.00;97707.72;5008523;28;20021;-70
2021/11/04 10:36:29;;;;;;;4.78;3.03;;;;;;;6.27;100.00;97738.56;5009696;28;20547;-69
2021/11/04 10:39:00;;;;;;;6.53;3.70;;;;;;;6.00;100.00;97700.91;5025666;28;20029;-72
2021/11/04 10:41:38;;;;;;;6.43;3.40;;;;;;;6.15;100.00;97725.72;5014240;28;20022;-71
2021/11/04 10:44:15;;;;;;;6.45;3.42;;;;;;;6.35;100.00;97738.38;5008825;28;20048;-68
2021/11/04 10:46:54;;;;;;;6.40;4.30;;;;;;;6.45;100.00;97746.06;5010424;28;20507;-71
2021/11/04 10:49:24;;;;;;;7.63;4.03;;;;;;;6.27;100.00;97741.25;5009421;28;20048;-71
2021/11/04 10:51:55;;;;;;;;;;;;;;;6.14;100.00;97750.09;5013059;28;20505;-72
2021/11/04 10:54:21;;;;;;;7.53;4.63;;;;;;;6.32;100.00;97758.44;5014000;28;20020;-68
2021/11/04 10:56:51;;;;;;;7.97;4.68;;;;;;;6.15;100.00;97747.19;5013903;28;20030;-71
2021/11/04 10:59:17;;;;;;;9.77;5.43;;;;;;;6.14;100.00;97753.59;5013872;28;20026;-69
2021/11/04 11:01:51;;;;;;;10.95;5.88;;;;;;;6.19;100.00;97746.81;5013198;28;20033;-69
2021/11/04 11:04:32;;;;;;;11.32;5.75;;;;;;;6.28;100.00;97764.41;5012437;28;20036;-67
2021/11/04 11:06:58;;;;;;;13.18;6.50;;;;;;;6.30;100.00;97744.38;5015512;28;20125;-67
2021/11/04 11:09:29;;;;;;;11.30;6.43;;;;;;;6.45;100.00;97775.63;5016392;28;20057;-67
2021/11/04 11:11:59;;;;;;;12.00;6.60;;;;;;;6.36;100.00;97777.66;5014608;28;20029;-67
2021/11/04 11:14:26;;;;;;;20.08;7.40;;;;;;;6.33;100.00;97786.94;4997429;28;20026;-67
2021/11/04 11:16:56;;;;;;;12.50;7.63;;;;;;;6.21;100.00;97802.00;4999110;28;20030;-67
2021/11/04 11:19:32;;;;;;;12.23;6.82;;;;;;;6.23;100.00;97797.22;5017769;28;20037;-67
2021/11/04 11:22:01;;;;;;;12.85;7.10;;;;;;;6.35;100.00;97790.25;5032520;28;20018;-66
2021/11/04 11:24:36;;;;;;;17.98;8.13;;;;;;;6.46;100.00;97804.13;5017261;28;20021;-67
2021/11/04 11:27:05;;;;;;;13.60;8.15;;;;;;;6.43;100.00;97804.53;5016430;28;20108;-67
2021/11/04 11:29:36;;;;;;;15.77;8.48;;;;;;;6.52;100.00;97814.06;5015627;28;20029;-67
2021/11/04 11:32:02;;;;;;;13.98;8.10;;;;;;;6.34;100.00;97788.59;5015168;28;20128;-67
2021/11/04 11:34:33;;;;;;;16.02;8.77;;;;;;;6.41;100.00;97804.72;5014891;28;20391;-65
2021/11/04 11:37:18;;;;;;;16.63;7.95;;;;;;;6.39;100.00;97824.78;5012400;28;20034;-66